sensor_id;sensor_type;location;lat;lon;timestamp;P1;durP1;ratioP1;P2;durP2;ratioP2
21297;SDS011;10808;48.010;11.326;2022-12-11T00:00:21;38.03;;;21.77;;
21297;SDS011;10808;48.010;11.326;2022-12-11T00:02:48;37.83;;;22.03;;
21297;SDS011;10808;48.010;11.326;2022-12-11T00:05:14;39.28;;;21.92;;
21297;SDS011;10808;48.010;11.326;2022-12-11T00:07:40;35.85;;;21.33;;
21297;SDS011;10808;48.010;11.326;2022-12-11T00:10:06;38.28;;;21.23;;
21297;SDS011;10808;48.010;11.326;2022-12-11T00:12:32;38.88;;;21.92;;
21297;SDS011;10808;48.010;11.326;2022-12-11T00:14:58;36.42;;;22.05;;
21297;SDS011;10808;48.010;11.326;2022-12-11T00:17:24;39.33;;;22.00;;
21297;SDS011;10808;48.010;11.326;2022-12-11T00:19:50;36.28;;;21.45;;
21297;SDS011;10808;48.010;11.326;2022-12-11T00:22:16;35.20;;;20.35;;
21297;SDS011;10808;48.010;11.326;2022-12-11T00:24:42;35.60;;;20.88;;
21297;SDS011;10808;48.010;11.326;2022-12-11T00:27:08;36.60;;;20.98;;
21297;SDS011;10808;48.010;11.326;2022-12-11T00:29:34;37.13;;;21.88;;
21297;SDS011;10808;48.010;11.326;2022-12-11T00:32:00;39.30;;;21.42;;
21297;SDS011;10808;48.010;11.326;2022-12-11T00:34:26;39.65;;;22.13;;
21297;SDS011;10808;48.010;11.326;2022-12-11T00:36:52;35.45;;;20.95;;
21297;SDS011;10808;48.010;11.326;2022-12-11T00:39:18;36.60;;;21.42;;
21297;SDS011;10808;48.010;11.326;2022-12-11T00:41:44;34.25;;;20.58;;
21297;SDS011;10808;48.010;11.326;2022-12-11T00:44:10;38.85;;;21.30;;
21297;SDS011;10808;48.010;11.326;2022-12-11T00:46:36;36.47;;;21.15;;
21297;SDS011;10808;48.010;11.326;2022-12-11T00:49:02;35.55;;;19.77;;
21297;SDS011;10808;48.010;11.326;2022-12-11T00:51:28;35.15;;;19.77;;
21297;SDS011;10808;48.010;11.326;2022-12-11T00:53:55;38.70;;;20.50;;
21297;SDS011;10808;48.010;11.326;2022-12-11T00:56:22;33.17;;;19.20;;
21297;SDS011;10808;48.010;11.326;2022-12-11T00:58:48;35.75;;;20.30;;
21297;SDS011;10808;48.010;11.326;2022-12-11T01:01:19;35.83;;;20.27;;
21297;SDS011;10808;48.010;11.326;2022-12-11T01:03:47;37.58;;;20.98;;
21297;SDS011;10808;48.010;11.326;2022-12-11T01:06:18;37.67;;;21.48;;
21297;SDS011;10808;48.010;11.326;2022-12-11T01:08:45;36.63;;;20.73;;
21297;SDS011;10808;48.010;11.326;2022-12-11T01:11:13;37.40;;;21.23;;
21297;SDS011;10808;48.010;11.326;2022-12-11T01:13:40;38.65;;;21.05;;
21297;SDS011;10808;48.010;11.326;2022-12-11T01:16:08;37.58;;;20.85;;
21297;SDS011;10808;48.010;11.326;2022-12-11T01:18:36;35.50;;;20.60;;
21297;SDS011;10808;48.010;11.326;2022-12-11T01:21:06;36.95;;;21.10;;
21297;SDS011;10808;48.010;11.326;2022-12-11T01:23:34;35.05;;;20.45;;
21297;SDS011;10808;48.010;11.326;2022-12-11T01:26:08;35.25;;;20.80;;
21297;SDS011;10808;48.010;11.326;2022-12-11T01:28:39;33.40;;;19.27;;
21297;SDS011;10808;48.010;11.326;2022-12-11T01:31:06;34.40;;;19.98;;
21297;SDS011;10808;48.010;11.326;2022-12-11T01:33:33;33.47;;;19.42;;
21297;SDS011;10808;48.010;11.326;2022-12-11T01:35:59;34.23;;;19.03;;
21297;SDS011;10808;48.010;11.326;2022-12-11T01:38:26;31.73;;;18.70;;
21297;SDS011;10808;48.010;11.326;2022-12-11T01:40:52;29.92;;;18.40;;
21297;SDS011;10808;48.010;11.326;2022-12-11T01:43:18;32.22;;;18.90;;
21297;SDS011;10808;48.010;11.326;2022-12-11T01:45:45;31.40;;;18.50;;
21297;SDS011;10808;48.010;11.326;2022-12-11T01:48:13;29.27;;;18.10;;
21297;SDS011;10808;48.010;11.326;2022-12-11T01:53:20;28.50;;;17.50;;
21297;SDS011;10808;48.010;11.326;2022-12-11T01:55:50;29.17;;;16.73;;
21297;SDS011;10808;48.010;11.326;2022-12-11T01:58:19;27.45;;;17.15;;
21297;SDS011;10808;48.010;11.326;2022-12-11T02:00:50;27.80;;;16.88;;
21297;SDS011;10808;48.010;11.326;2022-12-11T02:03:17;28.60;;;17.15;;
21297;SDS011;10808;48.010;11.326;2022-12-11T02:05:43;27.17;;;17.00;;
21297;SDS011;10808;48.010;11.326;2022-12-11T02:08:09;25.58;;;15.57;;
21297;SDS011;10808;48.010;11.326;2022-12-11T02:13:32;26.65;;;15.95;;
21297;SDS011;10808;48.010;11.326;2022-12-11T02:16:05;26.17;;;15.43;;
21297;SDS011;10808;48.010;11.326;2022-12-11T02:18:53;25.42;;;15.52;;
21297;SDS011;10808;48.010;11.326;2022-12-11T02:21:25;26.73;;;16.13;;
21297;SDS011;10808;48.010;11.326;2022-12-11T02:24:21;27.67;;;16.85;;
21297;SDS011;10808;48.010;11.326;2022-12-11T02:29:59;28.92;;;17.05;;
21297;SDS011;10808;48.010;11.326;2022-12-11T02:32:34;27.40;;;16.73;;
21297;SDS011;10808;48.010;11.326;2022-12-11T02:35:18;30.27;;;17.38;;
21297;SDS011;10808;48.010;11.326;2022-12-11T02:37:46;27.73;;;16.42;;
21297;SDS011;10808;48.010;11.326;2022-12-11T02:40:16;27.17;;;16.80;;
21297;SDS011;10808;48.010;11.326;2022-12-11T02:42:46;29.63;;;17.42;;
21297;SDS011;10808;48.010;11.326;2022-12-11T02:45:13;29.23;;;17.27;;
21297;SDS011;10808;48.010;11.326;2022-12-11T02:47:42;29.55;;;17.88;;
21297;SDS011;10808;48.010;11.326;2022-12-11T02:50:12;31.20;;;17.83;;
21297;SDS011;10808;48.010;11.326;2022-12-11T02:52:40;32.63;;;19.10;;
21297;SDS011;10808;48.010;11.326;2022-12-11T02:55:07;30.00;;;17.80;;
21297;SDS011;10808;48.010;11.326;2022-12-11T02:57:38;31.90;;;19.02;;
21297;SDS011;10808;48.010;11.326;2022-12-11T03:00:40;30.33;;;18.40;;
21297;SDS011;10808;48.010;11.326;2022-12-11T03:03:08;30.73;;;18.35;;
21297;SDS011;10808;48.010;11.326;2022-12-11T03:05:34;30.40;;;18.43;;
21297;SDS011;10808;48.010;11.326;2022-12-11T03:08:00;30.95;;;18.90;;
21297;SDS011;10808;48.010;11.326;2022-12-11T03:10:27;30.58;;;18.92;;
21297;SDS011;10808;48.010;11.326;2022-12-11T03:12:53;30.93;;;18.43;;
21297;SDS011;10808;48.010;11.326;2022-12-11T03:15:22;29.70;;;18.02;;
21297;SDS011;10808;48.010;11.326;2022-12-11T03:18:14;27.87;;;17.20;;
21297;SDS011;10808;48.010;11.326;2022-12-11T03:20:56;29.13;;;17.38;;
21297;SDS011;10808;48.010;11.326;2022-12-11T03:23:30;28.40;;;16.93;;
21297;SDS011;10808;48.010;11.326;2022-12-11T03:26:17;33.60;;;19.73;;
21297;SDS011;10808;48.010;11.326;2022-12-11T03:31:12;27.65;;;16.75;;
21297;SDS011;10808;48.010;11.326;2022-12-11T03:33:51;29.48;;;17.50;;
21297;SDS011;10808;48.010;11.326;2022-12-11T03:36:24;28.13;;;17.10;;
21297;SDS011;10808;48.010;11.326;2022-12-11T03:38:58;30.05;;;16.70;;
21297;SDS011;10808;48.010;11.326;2022-12-11T03:41:30;25.58;;;15.82;;
21297;SDS011;10808;48.010;11.326;2022-12-11T03:43:58;26.73;;;16.40;;
21297;SDS011;10808;48.010;11.326;2022-12-11T03:46:31;27.58;;;16.90;;
21297;SDS011;10808;48.010;11.326;2022-12-11T03:49:06;24.33;;;15.57;;
21297;SDS011;10808;48.010;11.326;2022-12-11T03:51:37;25.67;;;16.02;;
21297;SDS011;10808;48.010;11.326;2022-12-11T03:54:04;26.98;;;15.88;;
21297;SDS011;10808;48.010;11.326;2022-12-11T03:56:31;24.35;;;15.02;;
21297;SDS011;10808;48.010;11.326;2022-12-11T03:59:00;24.63;;;15.27;;
21297;SDS011;10808;48.010;11.326;2022-12-11T04:01:26;25.15;;;15.80;;
21297;SDS011;10808;48.010;11.326;2022-12-11T04:03:52;23.52;;;14.48;;
21297;SDS011;10808;48.010;11.326;2022-12-11T04:06:18;24.23;;;15.23;;
21297;SDS011;10808;48.010;11.326;2022-12-11T04:08:44;25.58;;;15.35;;
21297;SDS011;10808;48.010;11.326;2022-12-11T04:11:10;25.23;;;15.70;;
21297;SDS011;10808;48.010;11.326;2022-12-11T04:13:55;26.58;;;15.68;;
21297;SDS011;10808;48.010;11.326;2022-12-11T04:16:54;27.92;;;16.48;;
21297;SDS011;10808;48.010;11.326;2022-12-11T04:19:20;24.73;;;15.90;;
21297;SDS011;10808;48.010;11.326;2022-12-11T04:22:06;27.07;;;16.20;;
21297;SDS011;10808;48.010;11.326;2022-12-11T04:24:59;27.65;;;16.75;;
21297;SDS011;10808;48.010;11.326;2022-12-11T04:27:26;25.98;;;16.40;;
21297;SDS011;10808;48.010;11.326;2022-12-11T04:30:13;28.33;;;16.67;;
21297;SDS011;10808;48.010;11.326;2022-12-11T04:32:42;28.85;;;16.50;;
21297;SDS011;10808;48.010;11.326;2022-12-11T04:35:09;27.10;;;16.52;;
21297;SDS011;10808;48.010;11.326;2022-12-11T04:37:36;26.45;;;16.27;;
21297;SDS011;10808;48.010;11.326;2022-12-11T04:40:07;27.48;;;16.70;;
21297;SDS011;10808;48.010;11.326;2022-12-11T04:42:36;26.70;;;16.27;;
21297;SDS011;10808;48.010;11.326;2022-12-11T04:45:02;27.42;;;16.38;;
21297;SDS011;10808;48.010;11.326;2022-12-11T04:47:30;29.00;;;17.13;;
21297;SDS011;10808;48.010;11.326;2022-12-11T04:49:56;30.25;;;17.00;;
21297;SDS011;10808;48.010;11.326;2022-12-11T04:52:22;29.48;;;17.85;;
21297;SDS011;10808;48.010;11.326;2022-12-11T04:54:48;29.70;;;17.65;;
21297;SDS011;10808;48.010;11.326;2022-12-11T04:57:15;30.30;;;17.65;;
21297;SDS011;10808;48.010;11.326;2022-12-11T04:59:41;27.90;;;16.85;;
21297;SDS011;10808;48.010;11.326;2022-12-11T05:02:08;28.83;;;17.55;;
21297;SDS011;10808;48.010;11.326;2022-12-11T05:04:34;32.63;;;18.63;;
21297;SDS011;10808;48.010;11.326;2022-12-11T05:07:00;30.90;;;17.38;;
21297;SDS011;10808;48.010;11.326;2022-12-11T05:09:26;31.63;;;17.57;;
21297;SDS011;10808;48.010;11.326;2022-12-11T05:11:53;31.67;;;18.60;;
21297;SDS011;10808;48.010;11.326;2022-12-11T05:14:19;29.67;;;18.58;;
21297;SDS011;10808;48.010;11.326;2022-12-11T05:16:46;33.10;;;18.25;;
21297;SDS011;10808;48.010;11.326;2022-12-11T05:19:12;29.73;;;17.95;;
21297;SDS011;10808;48.010;11.326;2022-12-11T05:21:38;31.17;;;18.55;;
21297;SDS011;10808;48.010;11.326;2022-12-11T05:24:06;29.92;;;17.80;;
21297;SDS011;10808;48.010;11.326;2022-12-11T05:26:32;30.13;;;18.60;;
21297;SDS011;10808;48.010;11.326;2022-12-11T05:28:58;30.17;;;18.17;;
21297;SDS011;10808;48.010;11.326;2022-12-11T05:31:25;30.98;;;18.48;;
21297;SDS011;10808;48.010;11.326;2022-12-11T05:33:52;33.08;;;19.38;;
21297;SDS011;10808;48.010;11.326;2022-12-11T05:36:22;32.08;;;18.88;;
21297;SDS011;10808;48.010;11.326;2022-12-11T05:38:50;30.33;;;18.02;;
21297;SDS011;10808;48.010;11.326;2022-12-11T05:41:18;30.02;;;18.05;;
21297;SDS011;10808;48.010;11.326;2022-12-11T05:43:46;31.25;;;18.20;;
21297;SDS011;10808;48.010;11.326;2022-12-11T05:46:14;29.02;;;17.98;;
21297;SDS011;10808;48.010;11.326;2022-12-11T05:48:42;31.33;;;18.88;;
21297;SDS011;10808;48.010;11.326;2022-12-11T05:51:10;31.23;;;18.65;;
21297;SDS011;10808;48.010;11.326;2022-12-11T05:53:37;31.90;;;18.98;;
21297;SDS011;10808;48.010;11.326;2022-12-11T05:56:05;33.75;;;19.08;;
21297;SDS011;10808;48.010;11.326;2022-12-11T05:58:33;31.70;;;18.88;;
21297;SDS011;10808;48.010;11.326;2022-12-11T06:01:00;32.17;;;19.58;;
21297;SDS011;10808;48.010;11.326;2022-12-11T06:03:26;33.70;;;20.23;;
21297;SDS011;10808;48.010;11.326;2022-12-11T06:05:53;31.97;;;19.07;;
21297;SDS011;10808;48.010;11.326;2022-12-11T06:08:19;30.80;;;18.40;;
21297;SDS011;10808;48.010;11.326;2022-12-11T06:10:45;32.07;;;19.43;;
21297;SDS011;10808;48.010;11.326;2022-12-11T06:13:12;30.27;;;18.02;;
21297;SDS011;10808;48.010;11.326;2022-12-11T06:15:39;28.60;;;17.67;;
21297;SDS011;10808;48.010;11.326;2022-12-11T06:18:05;31.02;;;17.88;;
21297;SDS011;10808;48.010;11.326;2022-12-11T06:20:31;27.92;;;16.58;;
21297;SDS011;10808;48.010;11.326;2022-12-11T06:22:58;28.73;;;17.42;;
21297;SDS011;10808;48.010;11.326;2022-12-11T06:25:25;27.55;;;17.08;;
21297;SDS011;10808;48.010;11.326;2022-12-11T06:27:52;27.30;;;16.83;;
21297;SDS011;10808;48.010;11.326;2022-12-11T06:30:18;36.83;;;22.45;;
21297;SDS011;10808;48.010;11.326;2022-12-11T06:32:44;29.55;;;18.48;;
21297;SDS011;10808;48.010;11.326;2022-12-11T06:35:10;28.95;;;17.92;;
21297;SDS011;10808;48.010;11.326;2022-12-11T06:37:37;37.20;;;22.67;;
21297;SDS011;10808;48.010;11.326;2022-12-11T06:40:05;38.77;;;24.10;;
21297;SDS011;10808;48.010;11.326;2022-12-11T06:42:32;36.47;;;23.05;;
21297;SDS011;10808;48.010;11.326;2022-12-11T06:44:58;37.45;;;23.88;;
21297;SDS011;10808;48.010;11.326;2022-12-11T06:47:25;31.98;;;20.38;;
21297;SDS011;10808;48.010;11.326;2022-12-11T06:49:52;30.95;;;19.45;;
21297;SDS011;10808;48.010;11.326;2022-12-11T06:52:22;29.53;;;18.13;;
21297;SDS011;10808;48.010;11.326;2022-12-11T06:54:50;28.38;;;17.13;;
21297;SDS011;10808;48.010;11.326;2022-12-11T06:57:16;26.38;;;16.60;;
21297;SDS011;10808;48.010;11.326;2022-12-11T06:59:42;30.15;;;17.40;;
21297;SDS011;10808;48.010;11.326;2022-12-11T07:02:12;31.98;;;19.23;;
21297;SDS011;10808;48.010;11.326;2022-12-11T07:04:42;30.50;;;18.50;;
21297;SDS011;10808;48.010;11.326;2022-12-11T07:07:08;33.95;;;19.60;;
21297;SDS011;10808;48.010;11.326;2022-12-11T07:09:36;39.10;;;21.65;;
21297;SDS011;10808;48.010;11.326;2022-12-11T07:12:03;41.53;;;23.97;;
21297;SDS011;10808;48.010;11.326;2022-12-11T07:14:30;27.57;;;17.07;;
21297;SDS011;10808;48.010;11.326;2022-12-11T07:16:57;23.73;;;14.82;;
21297;SDS011;10808;48.010;11.326;2022-12-11T07:19:23;25.15;;;16.27;;
21297;SDS011;10808;48.010;11.326;2022-12-11T07:21:50;28.50;;;17.42;;
21297;SDS011;10808;48.010;11.326;2022-12-11T07:24:16;27.77;;;17.58;;
21297;SDS011;10808;48.010;11.326;2022-12-11T07:26:42;29.10;;;17.73;;
21297;SDS011;10808;48.010;11.326;2022-12-11T07:29:08;27.65;;;17.40;;
21297;SDS011;10808;48.010;11.326;2022-12-11T07:31:34;30.92;;;18.33;;
21297;SDS011;10808;48.010;11.326;2022-12-11T07:34:02;41.55;;;21.75;;
21297;SDS011;10808;48.010;11.326;2022-12-11T07:36:30;51.95;;;26.50;;
21297;SDS011;10808;48.010;11.326;2022-12-11T07:38:57;37.97;;;22.15;;
21297;SDS011;10808;48.010;11.326;2022-12-11T07:41:24;37.80;;;21.40;;
21297;SDS011;10808;48.010;11.326;2022-12-11T07:43:53;34.30;;;20.88;;
21297;SDS011;10808;48.010;11.326;2022-12-11T07:46:22;35.95;;;20.58;;
21297;SDS011;10808;48.010;11.326;2022-12-11T07:48:50;32.90;;;19.50;;
21297;SDS011;10808;48.010;11.326;2022-12-11T07:51:17;27.92;;;17.27;;
21297;SDS011;10808;48.010;11.326;2022-12-11T07:53:48;29.63;;;17.73;;
21297;SDS011;10808;48.010;11.326;2022-12-11T07:56:14;32.90;;;18.45;;
21297;SDS011;10808;48.010;11.326;2022-12-11T07:58:41;25.48;;;16.08;;
21297;SDS011;10808;48.010;11.326;2022-12-11T08:01:12;26.77;;;15.73;;
21297;SDS011;10808;48.010;11.326;2022-12-11T08:03:50;28.23;;;15.75;;
21297;SDS011;10808;48.010;11.326;2022-12-11T08:06:18;31.02;;;18.02;;
21297;SDS011;10808;48.010;11.326;2022-12-11T08:08:48;25.77;;;15.98;;
21297;SDS011;10808;48.010;11.326;2022-12-11T08:11:14;24.52;;;16.10;;
21297;SDS011;10808;48.010;11.326;2022-12-11T08:13:41;23.90;;;14.40;;
21297;SDS011;10808;48.010;11.326;2022-12-11T08:16:08;21.30;;;13.43;;
21297;SDS011;10808;48.010;11.326;2022-12-11T08:18:36;17.80;;;12.02;;
21297;SDS011;10808;48.010;11.326;2022-12-11T08:21:05;20.10;;;13.07;;
21297;SDS011;10808;48.010;11.326;2022-12-11T08:23:33;21.85;;;14.20;;
21297;SDS011;10808;48.010;11.326;2022-12-11T08:26:03;24.85;;;15.43;;
21297;SDS011;10808;48.010;11.326;2022-12-11T08:28:31;25.73;;;16.30;;
21297;SDS011;10808;48.010;11.326;2022-12-11T08:30:58;27.70;;;17.42;;
21297;SDS011;10808;48.010;11.326;2022-12-11T08:33:24;27.83;;;16.75;;
21297;SDS011;10808;48.010;11.326;2022-12-11T08:35:51;26.38;;;16.52;;
21297;SDS011;10808;48.010;11.326;2022-12-11T08:38:17;28.02;;;17.10;;
21297;SDS011;10808;48.010;11.326;2022-12-11T08:40:43;28.67;;;17.42;;
21297;SDS011;10808;48.010;11.326;2022-12-11T08:43:09;27.80;;;17.13;;
21297;SDS011;10808;48.010;11.326;2022-12-11T08:45:48;29.85;;;18.48;;
21297;SDS011;10808;48.010;11.326;2022-12-11T08:48:14;33.42;;;20.60;;
21297;SDS011;10808;48.010;11.326;2022-12-11T08:50:40;29.55;;;18.70;;
21297;SDS011;10808;48.010;11.326;2022-12-11T08:53:06;27.13;;;18.15;;
21297;SDS011;10808;48.010;11.326;2022-12-11T08:55:32;34.65;;;18.83;;
21297;SDS011;10808;48.010;11.326;2022-12-11T08:57:58;38.83;;;20.52;;
21297;SDS011;10808;48.010;11.326;2022-12-11T09:00:24;35.97;;;18.58;;
21297;SDS011;10808;48.010;11.326;2022-12-11T09:02:51;24.13;;;14.38;;
21297;SDS011;10808;48.010;11.326;2022-12-11T09:05:17;20.02;;;12.60;;
21297;SDS011;10808;48.010;11.326;2022-12-11T09:07:43;20.20;;;12.65;;
21297;SDS011;10808;48.010;11.326;2022-12-11T09:10:09;25.52;;;15.23;;
21297;SDS011;10808;48.010;11.326;2022-12-11T09:12:35;25.20;;;15.50;;
21297;SDS011;10808;48.010;11.326;2022-12-11T09:15:02;23.50;;;14.10;;
21297;SDS011;10808;48.010;11.326;2022-12-11T09:17:29;20.73;;;13.40;;
21297;SDS011;10808;48.010;11.326;2022-12-11T09:19:55;20.07;;;12.67;;
21297;SDS011;10808;48.010;11.326;2022-12-11T09:22:21;18.95;;;12.32;;
21297;SDS011;10808;48.010;11.326;2022-12-11T09:24:47;19.38;;;12.80;;
21297;SDS011;10808;48.010;11.326;2022-12-11T09:27:13;19.77;;;12.98;;
21297;SDS011;10808;48.010;11.326;2022-12-11T09:29:39;18.35;;;11.98;;
21297;SDS011;10808;48.010;11.326;2022-12-11T09:32:05;15.80;;;10.30;;
21297;SDS011;10808;48.010;11.326;2022-12-11T09:34:31;17.17;;;11.18;;
21297;SDS011;10808;48.010;11.326;2022-12-11T09:36:57;16.10;;;10.30;;
21297;SDS011;10808;48.010;11.326;2022-12-11T09:39:24;14.27;;;9.52;;
21297;SDS011;10808;48.010;11.326;2022-12-11T09:44:59;15.63;;;9.77;;
21297;SDS011;10808;48.010;11.326;2022-12-11T09:50:19;14.88;;;9.52;;
21297;SDS011;10808;48.010;11.326;2022-12-11T09:55:36;13.17;;;9.40;;
21297;SDS011;10808;48.010;11.326;2022-12-11T10:09:44;13.68;;;9.15;;
21297;SDS011;10808;48.010;11.326;2022-12-11T10:12:19;16.95;;;10.43;;
21297;SDS011;10808;48.010;11.326;2022-12-11T10:15:13;11.60;;;7.90;;
21297;SDS011;10808;48.010;11.326;2022-12-11T10:18:01;14.00;;;9.07;;
21297;SDS011;10808;48.010;11.326;2022-12-11T10:20:30;13.60;;;9.13;;
21297;SDS011;10808;48.010;11.326;2022-12-11T10:23:07;12.32;;;8.20;;
21297;SDS011;10808;48.010;11.326;2022-12-11T10:25:43;12.73;;;8.32;;
21297;SDS011;10808;48.010;11.326;2022-12-11T10:28:16;12.10;;;7.70;;
21297;SDS011;10808;48.010;11.326;2022-12-11T10:33:33;12.10;;;8.00;;
21297;SDS011;10808;48.010;11.326;2022-12-11T10:36:34;12.27;;;8.40;;
21297;SDS011;10808;48.010;11.326;2022-12-11T10:39:02;11.17;;;7.50;;
21297;SDS011;10808;48.010;11.326;2022-12-11T10:41:47;11.38;;;8.02;;
21297;SDS011;10808;48.010;11.326;2022-12-11T10:44:16;11.98;;;7.70;;
21297;SDS011;10808;48.010;11.326;2022-12-11T10:46:59;10.88;;;7.40;;
21297;SDS011;10808;48.010;11.326;2022-12-11T10:49:37;13.40;;;8.98;;
21297;SDS011;10808;48.010;11.326;2022-12-11T10:52:10;11.65;;;7.90;;
21297;SDS011;10808;48.010;11.326;2022-12-11T10:54:43;11.25;;;8.10;;
21297;SDS011;10808;48.010;11.326;2022-12-11T10:57:13;11.05;;;7.50;;
21297;SDS011;10808;48.010;11.326;2022-12-11T10:59:44;11.02;;;7.40;;
21297;SDS011;10808;48.010;11.326;2022-12-11T11:02:31;10.52;;;7.30;;
21297;SDS011;10808;48.010;11.326;2022-12-11T11:05:12;10.48;;;7.53;;
21297;SDS011;10808;48.010;11.326;2022-12-11T11:07:41;10.18;;;7.53;;
21297;SDS011;10808;48.010;11.326;2022-12-11T11:12:41;11.53;;;7.77;;
21297;SDS011;10808;48.010;11.326;2022-12-11T11:15:11;10.50;;;7.27;;
21297;SDS011;10808;48.010;11.326;2022-12-11T11:17:58;13.32;;;8.35;;
21297;SDS011;10808;48.010;11.326;2022-12-11T11:20:33;12.75;;;8.15;;
21297;SDS011;10808;48.010;11.326;2022-12-11T11:23:01;11.52;;;7.20;;
21297;SDS011;10808;48.010;11.326;2022-12-11T11:25:30;10.35;;;7.03;;
21297;SDS011;10808;48.010;11.326;2022-12-11T11:27:59;10.33;;;7.43;;
21297;SDS011;10808;48.010;11.326;2022-12-11T11:30:34;8.60;;;6.40;;
21297;SDS011;10808;48.010;11.326;2022-12-11T11:33:04;9.63;;;6.50;;
21297;SDS011;10808;48.010;11.326;2022-12-11T11:38:30;7.22;;;4.72;;
21297;SDS011;10808;48.010;11.326;2022-12-11T11:46:16;9.55;;;7.00;;
21297;SDS011;10808;48.010;11.326;2022-12-11T11:51:43;10.82;;;7.95;;
21297;SDS011;10808;48.010;11.326;2022-12-11T11:54:35;8.55;;;6.38;;
21297;SDS011;10808;48.010;11.326;2022-12-11T11:57:12;10.90;;;7.43;;
21297;SDS011;10808;48.010;11.326;2022-12-11T11:59:46;11.15;;;6.88;;
21297;SDS011;10808;48.010;11.326;2022-12-11T12:02:33;10.27;;;7.20;;
21297;SDS011;10808;48.010;11.326;2022-12-11T12:05:00;9.60;;;6.90;;
21297;SDS011;10808;48.010;11.326;2022-12-11T12:10:13;10.75;;;7.22;;
21297;SDS011;10808;48.010;11.326;2022-12-11T12:13:05;9.90;;;6.60;;
21297;SDS011;10808;48.010;11.326;2022-12-11T12:15:47;9.65;;;6.57;;
21297;SDS011;10808;48.010;11.326;2022-12-11T12:21:18;9.43;;;6.88;;
21297;SDS011;10808;48.010;11.326;2022-12-11T12:24:09;9.63;;;6.78;;
21297;SDS011;10808;48.010;11.326;2022-12-11T12:26:41;11.13;;;7.53;;
21297;SDS011;10808;48.010;11.326;2022-12-11T12:29:18;10.55;;;7.35;;
21297;SDS011;10808;48.010;11.326;2022-12-11T12:32:08;11.20;;;7.78;;
21297;SDS011;10808;48.010;11.326;2022-12-11T12:37:54;12.65;;;8.48;;
21297;SDS011;10808;48.010;11.326;2022-12-11T12:45:58;12.03;;;8.27;;
21297;SDS011;10808;48.010;11.326;2022-12-11T12:48:36;12.43;;;8.30;;
21297;SDS011;10808;48.010;11.326;2022-12-11T12:51:02;13.32;;;8.70;;
21297;SDS011;10808;48.010;11.326;2022-12-11T12:53:30;11.07;;;8.23;;
21297;SDS011;10808;48.010;11.326;2022-12-11T12:56:00;12.88;;;8.98;;
21297;SDS011;10808;48.010;11.326;2022-12-11T13:01:06;13.33;;;9.37;;
21297;SDS011;10808;48.010;11.326;2022-12-11T13:04:00;14.80;;;9.90;;
21297;SDS011;10808;48.010;11.326;2022-12-11T13:06:29;13.30;;;9.05;;
21297;SDS011;10808;48.010;11.326;2022-12-11T13:09:16;14.68;;;9.23;;
21297;SDS011;10808;48.010;11.326;2022-12-11T13:11:53;13.75;;;9.88;;
21297;SDS011;10808;48.010;11.326;2022-12-11T13:19:49;14.20;;;10.02;;
21297;SDS011;10808;48.010;11.326;2022-12-11T13:22:22;13.13;;;9.65;;
21297;SDS011;10808;48.010;11.326;2022-12-11T13:27:22;12.38;;;8.75;;
21297;SDS011;10808;48.010;11.326;2022-12-11T13:29:51;12.98;;;9.30;;
21297;SDS011;10808;48.010;11.326;2022-12-11T13:32:30;13.80;;;9.75;;
21297;SDS011;10808;48.010;11.326;2022-12-11T13:34:58;14.95;;;9.82;;
21297;SDS011;10808;48.010;11.326;2022-12-11T13:40:43;14.65;;;9.40;;
21297;SDS011;10808;48.010;11.326;2022-12-11T13:42:53;14.07;;;9.40;;
21297;SDS011;10808;48.010;11.326;2022-12-11T13:45:26;13.45;;;9.50;;
21297;SDS011;10808;48.010;11.326;2022-12-11T13:48:16;12.60;;;8.27;;
21297;SDS011;10808;48.010;11.326;2022-12-11T13:51:01;14.07;;;9.32;;
21297;SDS011;10808;48.010;11.326;2022-12-11T13:53:27;14.32;;;9.45;;
21297;SDS011;10808;48.010;11.326;2022-12-11T13:55:56;13.65;;;8.88;;
21297;SDS011;10808;48.010;11.326;2022-12-11T13:58:28;15.43;;;11.13;;
21297;SDS011;10808;48.010;11.326;2022-12-11T14:01:01;15.20;;;9.45;;
21297;SDS011;10808;48.010;11.326;2022-12-11T14:03:32;13.30;;;8.77;;
21297;SDS011;10808;48.010;11.326;2022-12-11T14:05:59;12.43;;;8.47;;
21297;SDS011;10808;48.010;11.326;2022-12-11T14:12:40;12.98;;;8.98;;
21297;SDS011;10808;48.010;11.326;2022-12-11T14:15:37;12.13;;;8.70;;
21297;SDS011;10808;48.010;11.326;2022-12-11T14:18:15;12.15;;;8.50;;
21297;SDS011;10808;48.010;11.326;2022-12-11T14:20:51;11.80;;;8.15;;
21297;SDS011;10808;48.010;11.326;2022-12-11T14:23:21;11.45;;;7.78;;
21297;SDS011;10808;48.010;11.326;2022-12-11T14:26:01;10.93;;;8.00;;
21297;SDS011;10808;48.010;11.326;2022-12-11T14:28:34;10.80;;;7.97;;
21297;SDS011;10808;48.010;11.326;2022-12-11T14:37:54;11.60;;;8.10;;
21297;SDS011;10808;48.010;11.326;2022-12-11T14:40:26;12.38;;;8.57;;
21297;SDS011;10808;48.010;11.326;2022-12-11T14:43:00;14.18;;;8.82;;
21297;SDS011;10808;48.010;11.326;2022-12-11T14:46:36;13.30;;;8.68;;
21297;SDS011;10808;48.010;11.326;2022-12-11T14:49:16;13.02;;;8.68;;
21297;SDS011;10808;48.010;11.326;2022-12-11T14:51:49;11.82;;;8.00;;
21297;SDS011;10808;48.010;11.326;2022-12-11T14:54:26;12.88;;;8.90;;
21297;SDS011;10808;48.010;11.326;2022-12-11T14:56:58;12.57;;;8.07;;
21297;SDS011;10808;48.010;11.326;2022-12-11T14:59:26;12.05;;;8.05;;
21297;SDS011;10808;48.010;11.326;2022-12-11T15:02:01;11.70;;;7.93;;
21297;SDS011;10808;48.010;11.326;2022-12-11T15:04:44;20.98;;;12.98;;
21297;SDS011;10808;48.010;11.326;2022-12-11T15:07:20;18.50;;;11.30;;
21297;SDS011;10808;48.010;11.326;2022-12-11T15:09:46;14.10;;;10.32;;
21297;SDS011;10808;48.010;11.326;2022-12-11T15:12:17;14.30;;;9.13;;
21297;SDS011;10808;48.010;11.326;2022-12-11T15:14:47;14.50;;;9.70;;
21297;SDS011;10808;48.010;11.326;2022-12-11T15:17:14;14.23;;;9.80;;
21297;SDS011;10808;48.010;11.326;2022-12-11T15:19:41;14.05;;;8.57;;
21297;SDS011;10808;48.010;11.326;2022-12-11T15:22:15;12.57;;;9.27;;
21297;SDS011;10808;48.010;11.326;2022-12-11T15:24:43;13.38;;;9.88;;
21297;SDS011;10808;48.010;11.326;2022-12-11T15:27:22;14.65;;;10.32;;
21297;SDS011;10808;48.010;11.326;2022-12-11T15:29:48;22.85;;;14.65;;
21297;SDS011;10808;48.010;11.326;2022-12-11T15:32:15;21.08;;;14.07;;
21297;SDS011;10808;48.010;11.326;2022-12-11T15:34:56;38.58;;;22.17;;
21297;SDS011;10808;48.010;11.326;2022-12-11T15:37:27;63.55;;;37.22;;
21297;SDS011;10808;48.010;11.326;2022-12-11T15:39:57;58.40;;;33.60;;
21297;SDS011;10808;48.010;11.326;2022-12-11T15:44:53;37.95;;;25.30;;
21297;SDS011;10808;48.010;11.326;2022-12-11T15:47:21;32.95;;;22.83;;
21297;SDS011;10808;48.010;11.326;2022-12-11T15:49:53;30.38;;;20.80;;
21297;SDS011;10808;48.010;11.326;2022-12-11T15:52:22;25.10;;;17.30;;
21297;SDS011;10808;48.010;11.326;2022-12-11T15:54:48;20.55;;;14.15;;
21297;SDS011;10808;48.010;11.326;2022-12-11T15:57:15;22.25;;;15.32;;
21297;SDS011;10808;48.010;11.326;2022-12-11T15:59:43;24.02;;;16.45;;
21297;SDS011;10808;48.010;11.326;2022-12-11T16:02:13;23.25;;;15.88;;